Time;durP1;ratioP1;P1;durP2;ratioP2;P2;SDS_P1;SDS_P2;PMS_P1;PMS_P2;Temp;Humidity;BMP_temperature;BMP_pressure;BME280_temperature;BME280_humidity;BME280_pressure;Samples;Min_cycle;Max_cycle;Signal;HPM_P1;HPM_P2
2022/06/01 00:01:26;;;;;;;14.10;11.38;;;;;;;;;;5123413;27;20055;-76
2022/06/01 00:03:52;;;;;;;18.13;13.02;;;;;;;;;;5113897;27;20043;-76
2022/06/01 00:06:19;;;;;;;14.82;12.18;;;;;;;;;;5097611;27;20066;-76
2022/06/01 00:08:45;;;;;;;15.35;13.15;;;;;;;;;;5122199;27;20184;-76
2022/06/01 00:11:11;;;;;;;16.10;12.48;;;;;;;;;;5121586;27;20042;-76
2022/06/01 00:13:37;;;;;;;16.27;12.68;;;;;;;;;;5114677;27;20487;-76
2022/06/01 00:16:04;;;;;;;16.92;13.77;;;;;;;;;;5126827;27;20046;-76
2022/06/01 00:18:30;;;;;;;15.65;12.77;;;;;;;;;;5117054;27;20042;-76
2022/06/01 00:20:56;;;;;;;14.63;11.90;;;;;;;;;;5102335;28;20493;-76
2022/06/01 00:23:22;;;;;;;16.05;12.38;;;;;;;;;;5124698;27;20077;-76
2022/06/01 00:25:49;;;;;;;16.60;13.30;;;;;;;;;;5113866;27;20040;-76
2022/06/01 00:28:15;;;;;;;15.57;12.90;;;;;;;;;;5123786;27;20105;-76
2022/06/01 00:30:41;;;;;;;16.23;12.85;;;;;;;;;;5120294;27;20535;-76
2022/06/01 00:33:08;;;;;;;15.60;12.85;;;;;;;;;;5098490;28;20175;-76
2022/06/01 00:35:34;;;;;;;16.10;13.90;;;;;;;;;;5126277;27;20031;-76
2022/06/01 00:38:00;;;;;;;15.00;13.02;;;;;;;;;;5115238;27;20070;-76
2022/06/01 00:40:28;;;;;;;14.65;11.57;;;;;;;;;;5119884;27;20043;-76
2022/06/01 00:42:57;;;;;;;15.43;11.48;;;;;;;;;;5123380;27;20529;-76
2022/06/01 00:45:25;;;;;;;15.70;13.05;;;;;;;;;;5113241;27;20414;-76
2022/06/01 00:47:51;;;;;;;15.88;12.35;;;;;;;;;;5124073;27;20071;-76
2022/06/01 00:50:25;;;;;;;16.67;13.10;;;;;;;;;;5118849;27;20077;-76
2022/06/01 00:52:58;;;;;;;16.15;12.93;;;;;;;;;;5097592;28;20043;-76
2022/06/01 00:55:35;;;;;;;16.42;12.85;;;;;;;;;;5125671;27;20095;-76
2022/06/01 00:58:06;;;;;;;16.50;14.25;;;;;;;;;;5118113;27;20027;-76
2022/06/01 01:00:33;;;;;;;16.90;14.15;;;;;;;;;;5115992;27;20036;-76
2022/06/01 01:03:02;;;;;;;15.13;13.40;;;;;;;;;;5107589;27;20541;-76
2022/06/01 01:05:29;;;;;;;18.55;14.25;;;;;;;;;;5124397;27;20521;-76
2022/06/01 01:07:58;;;;;;;16.63;14.00;;;;;;;;;;5118212;27;20109;-76
2022/06/01 01:10:24;;;;;;;17.80;14.55;;;;;;;;;;5115529;27;20058;-76
2022/06/01 01:12:57;;;;;;;17.40;14.80;;;;;;;;;;5125646;27;20547;-76
2022/06/01 01:15:28;;;;;;;19.40;15.13;;;;;;;;;;5108831;28;20390;-76
2022/06/01 01:17:55;;;;;;;16.40;13.95;;;;;;;;;;5119270;27;20398;-76
2022/06/01 01:20:21;;;;;;;18.25;15.02;;;;;;;;;;5097714;28;20390;-76
2022/06/01 01:23:01;;;;;;;17.02;15.00;;;;;;;;;;5125186;27;20035;-76
2022/06/01 01:25:28;;;;;;;17.48;14.05;;;;;;;;;;5099328;27;20054;-76
2022/06/01 01:27:57;;;;;;;18.00;14.25;;;;;;;;;;5117307;27;20092;-76
2022/06/01 01:30:24;;;;;;;16.00;13.52;;;;;;;;;;5107869;27;20078;-76
2022/06/01 01:32:50;;;;;;;16.77;13.27;;;;;;;;;;5091410;28;20032;-76
2022/06/01 01:35:16;;;;;;;17.10;13.48;;;;;;;;;;5116250;27;20031;-75
2022/06/01 01:37:43;;;;;;;14.65;12.45;;;;;;;;;;5100219;28;20066;-75
2022/06/01 01:40:09;;;;;;;17.27;14.45;;;;;;;;;;5124184;27;20113;-76
2022/06/01 01:42:36;;;;;;;16.92;13.82;;;;;;;;;;5112004;27;20486;-75
2022/06/01 01:45:09;;;;;;;17.08;12.40;;;;;;;;;;5121710;27;20039;-76
2022/06/01 01:47:36;;;;;;;16.47;13.17;;;;;;;;;;5120960;27;20082;-75
2022/06/01 01:50:07;;;;;;;17.48;14.07;;;;;;;;;;5128740;27;20171;-76
2022/06/01 01:52:33;;;;;;;16.77;13.63;;;;;;;;;;5096173;27;20035;-76
2022/06/01 01:55:06;;;;;;;16.77;12.82;;;;;;;;;;5120511;27;20092;-76
2022/06/01 01:57:32;;;;;;;16.90;13.57;;;;;;;;;;5104034;27;20035;-76
2022/06/01 02:00:07;;;;;;;18.15;14.32;;;;;;;;;;5111723;27;20414;-76
2022/06/01 02:02:40;;;;;;;18.15;14.02;;;;;;;;;;5105714;28;20163;-76
2022/06/01 02:07:54;;;;;;;19.55;16.30;;;;;;;;;;5111753;27;20537;-76
2022/06/01 02:13:05;;;;;;;18.95;15.73;;;;;;;;;;5119237;27;20115;-75
2022/06/01 02:15:37;;;;;;;22.00;17.40;;;;;;;;;;5112337;27;20040;-76
2022/06/01 02:18:08;;;;;;;17.48;14.70;;;;;;;;;;5081832;28;20088;-76
2022/06/01 02:20:46;;;;;;;19.45;14.95;;;;;;;;;;5099007;28;20070;-75
2022/06/01 02:23:13;;;;;;;18.30;16.33;;;;;;;;;;5111599;28;20480;-76
2022/06/01 02:25:41;;;;;;;18.17;15.98;;;;;;;;;;5111577;28;20035;-76
2022/06/01 02:28:07;;;;;;;18.65;15.18;;;;;;;;;;5122206;28;20050;-76
2022/06/01 02:30:37;;;;;;;18.67;16.10;;;;;;;;;;5117195;28;20039;-76
2022/06/01 02:33:05;;;;;;;20.23;16.42;;;;;;;;;;5096840;28;20088;-76
2022/06/01 02:35:34;;;;;;;17.33;14.70;;;;;;;;;;5124198;28;20035;-76
2022/06/01 02:38:01;;;;;;;20.00;16.33;;;;;;;;;;5096543;28;20046;-76
2022/06/01 02:40:29;;;;;;;21.27;17.52;;;;;;;;;;5101028;28;20122;-76
2022/06/01 02:42:55;;;;;;;21.35;17.00;;;;;;;;;;5122105;28;20035;-75
2022/06/01 02:45:26;;;;;;;21.30;16.85;;;;;;;;;;5111504;28;20039;-76
2022/06/01 02:47:54;;;;;;;20.25;16.52;;;;;;;;;;5121426;28;20059;-76
2022/06/01 02:50:27;;;;;;;22.38;18.77;;;;;;;;;;5118056;28;20100;-76
2022/06/01 02:52:54;;;;;;;20.25;16.92;;;;;;;;;;5112288;28;20035;-75
2022/06/01 02:55:21;;;;;;;20.73;18.02;;;;;;;;;;5124162;28;20112;-76
2022/06/01 02:57:48;;;;;;;21.30;17.20;;;;;;;;;;5114398;28;20174;-76
2022/06/01 03:00:19;;;;;;;23.65;18.45;;;;;;;;;;5117013;28;20387;-76
2022/06/01 03:02:47;;;;;;;21.50;17.60;;;;;;;;;;5099061;28;20517;-76
2022/06/01 03:05:15;;;;;;;21.10;18.52;;;;;;;;;;5123476;28;20035;-76
2022/06/01 03:07:42;;;;;;;20.75;17.73;;;;;;;;;;5107430;28;20047;-76
2022/06/01 03:10:09;;;;;;;21.20;18.00;;;;;;;;;;5118528;28;20035;-75
2022/06/01 03:12:36;;;;;;;27.25;19.92;;;;;;;;;;5094768;28;20036;-76
2022/06/01 03:15:03;;;;;;;25.05;20.67;;;;;;;;;;5123919;28;20512;-76
2022/06/01 03:17:30;;;;;;;24.83;20.60;;;;;;;;;;5114472;28;20046;-76
2022/06/01 03:19:56;;;;;;;25.58;21.23;;;;;;;;;;5116490;28;20122;-76
2022/06/01 03:22:23;;;;;;;22.13;19.45;;;;;;;;;;5105306;28;20047;-76
2022/06/01 03:24:49;;;;;;;21.35;18.98;;;;;;;;;;5110915;28;20498;-76
2022/06/01 03:27:15;;;;;;;22.70;19.58;;;;;;;;;;5121004;28;20531;-76
2022/06/01 03:29:41;;;;;;;23.00;19.05;;;;;;;;;;5121096;27;20039;-76
2022/06/01 03:32:08;;;;;;;20.70;18.50;;;;;;;;;;5094815;28;20075;-76
2022/06/01 03:34:34;;;;;;;20.98;17.60;;;;;;;;;;5124246;27;20043;-75
2022/06/01 03:37:02;;;;;;;21.25;18.20;;;;;;;;;;5116817;27;20560;-76
2022/06/01 03:39:28;;;;;;;21.67;19.38;;;;;;;;;;5103269;28;20035;-76
2022/06/01 03:41:54;;;;;;;18.88;16.83;;;;;;;;;;5124883;27;20194;-76
2022/06/01 03:47:25;;;;;;;24.50;20.67;;;;;;;;;;5060878;28;20044;-76
2022/06/01 03:49:51;;;;;;;23.30;20.30;;;;;;;;;;5066237;28;20044;-76
2022/06/01 03:52:17;;;;;;;23.38;20.70;;;;;;;;;;5064323;27;20071;-76
2022/06/01 03:54:44;;;;;;;24.65;20.65;;;;;;;;;;5107593;28;20564;-76
2022/06/01 03:57:12;;;;;;;22.80;20.30;;;;;;;;;;5120665;27;20078;-76
2022/06/01 03:59:38;;;;;;;22.73;20.33;;;;;;;;;;5116285;27;20115;-76
2022/06/01 04:02:05;;;;;;;22.27;19.13;;;;;;;;;;5109832;27;20046;-76
2022/06/01 04:04:32;;;;;;;23.48;19.92;;;;;;;;;;5115886;27;20061;-76
2022/06/01 04:06:58;;;;;;;26.15;20.70;;;;;;;;;;5103060;28;20082;-76
2022/06/01 04:09:25;;;;;;;25.92;21.63;;;;;;;;;;5123970;27;20116;-77
2022/06/01 04:11:52;;;;;;;24.40;21.23;;;;;;;;;;5112058;27;20038;-77
2022/06/01 04:14:21;;;;;;;28.80;24.65;;;;;;;;;;5098244;27;20035;-77
2022/06/01 04:16:48;;;;;;;27.55;23.88;;;;;;;;;;5120784;27;20483;-76
2022/06/01 04:19:14;;;;;;;29.40;25.67;;;;;;;;;;5106753;27;20235;-76
2022/06/01 04:21:42;;;;;;;29.63;24.52;;;;;;;;;;5096477;27;20096;-76
2022/06/01 04:24:11;;;;;;;29.60;25.75;;;;;;;;;;5125029;27;20043;-76
2022/06/01 04:26:37;;;;;;;29.55;24.95;;;;;;;;;;5119422;27;20039;-76
2022/06/01 04:29:03;;;;;;;29.27;26.27;;;;;;;;;;5130217;27;20305;-76
2022/06/01 04:31:30;;;;;;;31.27;27.23;;;;;;;;;;5113379;27;20046;-76
2022/06/01 04:33:56;;;;;;;29.23;24.95;;;;;;;;;;5124737;27;20039;-76
2022/06/01 04:36:22;;;;;;;30.38;26.15;;;;;;;;;;5101653;27;20129;-76
2022/06/01 04:38:48;;;;;;;30.92;27.02;;;;;;;;;;5099517;28;20416;-76
2022/06/01 04:41:15;;;;;;;30.35;26.55;;;;;;;;;;5125846;27;20046;-76
2022/06/01 04:43:41;;;;;;;23.60;21.15;;;;;;;;;;5113932;27;20042;-76
2022/06/01 04:46:07;;;;;;;26.60;21.65;;;;;;;;;;5104741;28;20048;-76
2022/06/01 04:48:33;;;;;;;26.60;22.27;;;;;;;;;;5104092;28;20047;-76
2022/06/01 04:51:00;;;;;;;28.23;23.50;;;;;;;;;;5108997;27;20439;-76
2022/06/01 04:53:26;;;;;;;27.48;24.25;;;;;;;;;;5113021;27;20066;-76
2022/06/01 04:55:52;;;;;;;27.95;24.02;;;;;;;;;;5129715;27;20413;-76
2022/06/01 04:58:19;;;;;;;26.80;23.50;;;;;;;;;;5117799;27;20131;-76
2022/06/01 05:00:46;;;;;;;26.83;23.92;;;;;;;;;;5124650;27;20406;-77
2022/06/01 05:03:12;;;;;;;31.20;24.98;;;;;;;;;;5112983;27;20035;-77
2022/06/01 05:05:39;;;;;;;27.63;23.95;;;;;;;;;;5104806;28;20042;-77
2022/06/01 05:08:06;;;;;;;29.48;26.15;;;;;;;;;;5102799;27;20055;-77
2022/06/01 05:10:33;;;;;;;29.02;25.88;;;;;;;;;;5113610;27;20093;-77
2022/06/01 05:12:59;;;;;;;28.08;25.08;;;;;;;;;;5108429;27;20035;-76
2022/06/01 05:15:26;;;;;;;27.80;24.73;;;;;;;;;;5115694;27;20482;-76
2022/06/01 05:17:52;;;;;;;26.70;23.25;;;;;;;;;;5101110;28;20043;-77
2022/06/01 05:20:18;;;;;;;28.52;25.33;;;;;;;;;;5123654;27;20062;-77
2022/06/01 05:22:44;;;;;;;28.63;25.42;;;;;;;;;;5126983;27;20540;-77
2022/06/01 05:25:10;;;;;;;29.08;25.58;;;;;;;;;;5114341;27;20043;-77
2022/06/01 05:27:37;;;;;;;26.48;23.02;;;;;;;;;;5118648;27;20053;-77
2022/06/01 05:30:04;;;;;;;30.38;27.00;;;;;;;;;;5122446;27;20469;-77
2022/06/01 05:32:30;;;;;;;30.13;25.20;;;;;;;;;;5116308;27;20039;-76
2022/06/01 05:34:56;;;;;;;28.80;25.58;;;;;;;;;;5116970;27;20035;-77
2022/06/01 05:37:22;;;;;;;27.40;24.50;;;;;;;;;;5118393;27;20449;-77
2022/06/01 05:39:48;;;;;;;27.65;22.83;;;;;;;;;;5109988;27;20047;-77
2022/06/01 05:42:14;;;;;;;29.17;24.90;;;;;;;;;;5117678;27;20048;-77
2022/06/01 05:44:41;;;;;;;29.13;24.90;;;;;;;;;;5108852;27;20044;-77
2022/06/01 05:47:07;;;;;;;28.42;24.17;;;;;;;;;;5090646;28;20039;-76
2022/06/01 05:49:33;;;;;;;29.67;25.98;;;;;;;;;;5090717;28;20422;-77
2022/06/01 05:52:00;;;;;;;25.77;22.98;;;;;;;;;;5107517;28;20031;-77
2022/06/01 05:54:26;;;;;;;27.67;22.75;;;;;;;;;;5108727;27;20042;-76
2022/06/01 05:56:52;;;;;;;26.38;22.92;;;;;;;;;;5104943;28;20031;-77
2022/06/01 05:59:18;;;;;;;27.13;23.15;;;;;;;;;;5107722;28;20064;-77
2022/06/01 06:01:44;;;;;;;26.25;22.85;;;;;;;;;;5093229;28;20543;-77
2022/06/01 06:04:11;;;;;;;30.33;24.95;;;;;;;;;;5108878;27;20534;-77
2022/06/01 06:06:37;;;;;;;27.23;23.88;;;;;;;;;;5089723;28;20120;-78
2022/06/01 06:09:05;;;;;;;29.05;24.08;;;;;;;;;;5090171;28;20123;-77
2022/06/01 06:11:33;;;;;;;28.83;25.02;;;;;;;;;;5104803;28;20043;-76
2022/06/01 06:14:00;;;;;;;27.15;23.85;;;;;;;;;;5091545;28;20658;-77
2022/06/01 06:16:27;;;;;;;26.08;23.25;;;;;;;;;;5111860;28;20084;-76
2022/06/01 06:18:56;;;;;;;27.23;22.90;;;;;;;;;;5089795;28;20067;-77
2022/06/01 06:21:22;;;;;;;26.63;23.13;;;;;;;;;;5111899;27;20047;-76
2022/06/01 06:23:49;;;;;;;27.67;23.40;;;;;;;;;;5107313;28;20035;-77
2022/06/01 06:26:16;;;;;;;26.90;22.73;;;;;;;;;;5115397;28;20043;-77
2022/06/01 06:28:44;;;;;;;24.48;20.92;;;;;;;;;;5117575;28;20495;-77
2022/06/01 06:31:10;;;;;;;26.48;22.65;;;;;;;;;;5123028;28;20086;-78
2022/06/01 06:33:37;;;;;;;25.55;22.13;;;;;;;;;;5110559;28;20131;-77
2022/06/01 06:36:05;;;;;;;24.73;21.35;;;;;;;;;;5121614;28;20572;-78
2022/06/01 06:38:32;;;;;;;25.65;22.88;;;;;;;;;;5109016;28;20039;-77
2022/06/01 06:40:59;;;;;;;27.83;23.23;;;;;;;;;;5106910;28;20095;-82
2022/06/01 06:43:26;;;;;;;23.08;20.05;;;;;;;;;;5103950;28;20396;-78
2022/06/01 06:45:56;;;;;;;24.88;20.85;;;;;;;;;;5098986;28;20043;-78
2022/06/01 06:48:23;;;;;;;25.63;21.20;;;;;;;;;;5099207;28;20038;-79
2022/06/01 06:50:49;;;;;;;23.42;20.92;;;;;;;;;;5096091;28;20119;-77
2022/06/01 06:53:16;;;;;;;26.50;22.05;;;;;;;;;;5124154;28;20047;-80
2022/06/01 06:55:42;;;;;;;24.80;20.80;;;;;;;;;;5096686;28;20039;-87
2022/06/01 06:58:09;;;;;;;23.00;19.90;;;;;;;;;;5117837;28;20100;-85
2022/06/01 07:00:35;;;;;;;25.48;20.35;;;;;;;;;;5109498;28;20507;-88
2022/06/01 07:03:01;;;;;;;26.05;21.05;;;;;;;;;;5109731;27;20050;-77
2022/06/01 07:08:12;;;;;;;20.48;17.48;;;;;;;;;;5119015;27;20410;-78
2022/06/01 07:10:39;;;;;;;21.05;18.75;;;;;;;;;;5127491;27;20045;-77
2022/06/01 07:13:05;;;;;;;22.92;19.80;;;;;;;;;;5127525;27;20118;-78
2022/06/01 07:15:31;;;;;;;21.95;17.85;;;;;;;;;;5102306;27;20028;-78
2022/06/01 07:17:57;;;;;;;20.27;17.60;;;;;;;;;;5130334;27;20081;-78
2022/06/01 07:20:24;;;;;;;19.60;16.73;;;;;;;;;;5098387;28;20048;-79
2022/06/01 07:22:50;;;;;;;21.00;15.52;;;;;;;;;;5128305;27;20071;-79
2022/06/01 07:25:16;;;;;;;19.65;14.55;;;;;;;;;;5118566;27;20528;-80
2022/06/01 07:27:42;;;;;;;17.20;14.40;;;;;;;;;;5120032;27;20050;-79
2022/06/01 07:30:10;;;;;;;16.08;13.50;;;;;;;;;;5108869;27;20066;-80
2022/06/01 07:32:36;;;;;;;15.73;13.82;;;;;;;;;;5114539;27;20040;-81
2022/06/01 07:35:04;;;;;;;15.75;12.35;;;;;;;;;;5124434;27;20456;-80
2022/06/01 07:43:05;;;;;;;15.27;12.82;;;;;;;;;;5123729;27;20051;-81
2022/06/01 07:45:33;;;;;;;16.25;12.93;;;;;;;;;;5105476;27;20091;-81
2022/06/01 07:47:59;;;;;;;17.38;13.95;;;;;;;;;;5114793;27;20406;-80
2022/06/01 07:50:25;;;;;;;15.55;13.00;;;;;;;;;;5109799;28;20043;-80
2022/06/01 07:52:51;;;;;;;15.52;13.52;;;;;;;;;;5117723;27;20035;-81
2022/06/01 07:55:17;;;;;;;16.35;12.60;;;;;;;;;;5120040;27;20036;-80
2022/06/01 07:57:43;;;;;;;15.68;12.35;;;;;;;;;;5126261;27;20109;-79
2022/06/01 08:00:10;;;;;;;13.98;12.30;;;;;;;;;;5097045;27;20050;-78
2022/06/01 08:02:38;;;;;;;14.70;12.70;;;;;;;;;;5123728;27;20339;-79
2022/06/01 08:05:04;;;;;;;14.07;11.60;;;;;;;;;;5121546;27;20090;-80
2022/06/01 08:07:31;;;;;;;14.27;12.35;;;;;;;;;;5115049;27;20060;-80
2022/06/01 08:09:57;;;;;;;17.10;12.30;;;;;;;;;;5126695;27;20062;-80
2022/06/01 08:15:08;;;;;;;15.90;13.73;;;;;;;;;;5116965;27;20040;-81
2022/06/01 08:17:34;;;;;;;18.42;14.50;;;;;;;;;;5109429;27;20046;-82
2022/06/01 08:20:01;;;;;;;16.52;13.88;;;;;;;;;;5114475;27;20039;-81
2022/06/01 08:22:27;;;;;;;17.23;14.60;;;;;;;;;;5104786;28;20043;-79
2022/06/01 08:24:53;;;;;;;18.45;15.30;;;;;;;;;;5093113;28;20135;-83
2022/06/01 08:27:19;;;;;;;17.85;14.38;;;;;;;;;;5126140;27;20383;-80
2022/06/01 08:29:46;;;;;;;15.00;13.20;;;;;;;;;;5092878;28;20097;-81
2022/06/01 08:32:12;;;;;;;17.20;14.68;;;;;;;;;;5110260;27;20043;-80
2022/06/01 08:34:38;;;;;;;15.13;13.50;;;;;;;;;;5121323;27;20031;-82
2022/06/01 08:37:05;;;;;;;15.57;13.38;;;;;;;;;;5097950;28;20054;-81
2022/06/01 08:39:32;;;;;;;18.77;14.13;;;;;;;;;;5112596;27;20056;-81
2022/06/01 08:41:59;;;;;;;17.33;13.68;;;;;;;;;;5123069;27;20047;-82
2022/06/01 08:44:37;;;;;;;16.42;12.13;;;;;;;;;;5103370;27;20039;-81
2022/06/01 08:47:06;;;;;;;13.73;10.70;;;;;;;;;;5096191;28;20721;-83
2022/06/01 08:49:34;;;;;;;13.95;10.85;;;;;;;;;;5107812;28;20047;-84
2022/06/01 08:52:00;;;;;;;14.32;10.52;;;;;;;;;;5118174;27;20460;-85
2022/06/01 08:54:26;;;;;;;15.07;10.60;;;;;;;;;;5100069;28;20036;-84
2022/06/01 08:56:56;;;;;;;11.07;8.40;;;;;;;;;;5125897;27;20038;-84
2022/06/01 08:59:26;;;;;;;10.80;7.88;;;;;;;;;;5114037;27;20078;-83
2022/06/01 09:01:59;;;;;;;9.80;7.25;;;;;;;;;;5103888;28;20043;-84
2022/06/01 09:04:38;;;;;;;11.00;7.05;;;;;;;;;;5105850;27;20040;-83
2022/06/01 09:07:26;;;;;;;9.38;6.82;;;;;;;;;;5112488;27;20419;-82
2022/06/01 09:10:08;;;;;;;10.50;6.88;;;;;;;;;;5118987;27;20089;-82
2022/06/01 09:12:34;;;;;;;8.65;6.45;;;;;;;;;;5108105;27;20039;-84
2022/06/01 09:15:06;;;;;;;10.30;6.25;;;;;;;;;;5109238;27;20046;-83
2022/06/01 09:17:34;;;;;;;7.85;5.47;;;;;;;;;;5100268;27;20119;-82
2022/06/01 09:22:46;;;;;;;8.85;5.93;;;;;;;;;;5125225;27;20053;-81
2022/06/01 09:25:14;;;;;;;10.90;7.18;;;;;;;;;;5097497;28;20047;-81
2022/06/01 09:27:52;;;;;;;9.80;7.13;;;;;;;;;;5100630;28;20047;-81
2022/06/01 09:30:34;;;;;;;9.85;6.75;;;;;;;;;;5108216;27;20395;-81
2022/06/01 09:33:06;;;;;;;8.70;6.25;;;;;;;;;;5097671;27;20073;-82
2022/06/01 09:35:35;;;;;;;8.70;5.45;;;;;;;;;;5100696;28;20036;-83
2022/06/01 09:38:11;;;;;;;7.95;6.00;;;;;;;;;;5107669;27;20502;-82
2022/06/01 09:40:37;;;;;;;9.20;7.10;;;;;;;;;;5075489;28;20123;-82
2022/06/01 09:43:04;;;;;;;11.05;8.13;;;;;;;;;;5099332;27;20050;-81
2022/06/01 09:45:39;;;;;;;9.95;7.00;;;;;;;;;;5100252;28;20046;-82
2022/06/01 09:48:14;;;;;;;11.30;7.53;;;;;;;;;;5095066;27;20040;-82
2022/06/01 09:50:42;;;;;;;10.52;7.25;;;;;;;;;;5122417;27;20539;-82
2022/06/01 09:53:11;;;;;;;9.82;6.80;;;;;;;;;;5118473;27;20042;-80
2022/06/01 09:55:51;;;;;;;10.45;6.00;;;;;;;;;;5113903;27;20093;-82
2022/06/01 10:06:05;;;;;;;7.20;5.45;;;;;;;;;;5095220;27;20121;-82
2022/06/01 10:06:52;;;;;;;9.20;5.35;;;;;;;;;;5117622;27;20081;-80
2022/06/01 10:09:29;;;;;;;8.38;5.82;;;;;;;;;;5097123;28;20089;-81
2022/06/01 10:11:56;;;;;;;9.88;6.50;;;;;;;;;;5107753;28;20043;-81
2022/06/01 10:14:24;;;;;;;10.00;6.18;;;;;;;;;;5098079;27;20031;-83
2022/06/01 10:17:03;;;;;;;7.88;5.90;;;;;;;;;;5116966;27;20043;-81
2022/06/01 10:19:49;;;;;;;9.48;6.55;;;;;;;;;;5125268;27;20039;-82
2022/06/01 10:22:34;;;;;;;7.38;5.35;;;;;;;;;;5097540;28;20039;-82
2022/06/01 10:25:03;;;;;;;8.68;5.65;;;;;;;;;;5097446;28;20044;-81
2022/06/01 10:27:37;;;;;;;7.63;5.80;;;;;;;;;;5124405;28;20050;-81
2022/06/01 10:30:10;;;;;;;7.13;4.47;;;;;;;;;;5114026;28;20108;-82
2022/06/01 10:32:47;;;;;;;10.38;6.20;;;;;;;;;;5099612;28;20039;-81
2022/06/01 10:35:26;;;;;;;8.98;5.65;;;;;;;;;;5107092;28;20114;-80
2022/06/01 10:37:55;;;;;;;7.57;5.10;;;;;;;;;;5099100;27;20054;-81
2022/06/01 10:40:24;;;;;;;7.32;4.90;;;;;;;;;;5104508;28;20036;-82
2022/06/01 10:45:52;;;;;;;8.93;6.95;;;;;;;;;;5097252;28;20388;-80
2022/06/01 10:48:31;;;;;;;6.72;5.03;;;;;;;;;;5105756;27;20121;-80
2022/06/01 10:51:02;;;;;;;10.55;5.72;;;;;;;;;;5115267;27;20039;-81
2022/06/01 10:53:31;;;;;;;7.15;4.13;;;;;;;;;;5109883;28;20039;-81
2022/06/01 10:55:58;;;;;;;7.43;3.90;;;;;;;;;;5120673;27;20039;-81
2022/06/01 10:58:25;;;;;;;6.53;4.30;;;;;;;;;;5118779;27;20502;-81
2022/06/01 11:01:00;;;;;;;7.60;5.90;;;;;;;;;;5128334;27;20043;-81
2022/06/01 11:03:43;;;;;;;7.88;5.47;;;;;;;;;;5099556;28;20047;-80
2022/06/01 11:06:28;;;;;;;11.15;6.40;;;;;;;;;;5095830;28;20641;-83
2022/06/01 11:08:54;;;;;;;;;;;;;;;;;;5114320;27;20100;-85
2022/06/01 11:11:35;;;;;;;10.13;7.82;;;;;;;;;;5126227;27;19923;-87
2022/06/01 11:14:04;;;;;;;10.65;7.55;;;;;;;;;;5107437;27;20463;-80
2022/06/01 11:16:40;;;;;;;10.25;6.88;;;;;;;;;;5115989;27;20039;-82
2022/06/01 11:19:10;;;;;;;13.75;8.60;;;;;;;;;;5117276;27;20046;-81
2022/06/01 11:21:36;;;;;;;10.90;8.98;;;;;;;;;;5116199;27;20050;-84
2022/06/01 11:24:17;;;;;;;10.93;8.23;;;;;;;;;;5101368;28;20050;-85
2022/06/01 11:26:59;;;;;;;8.90;6.60;;;;;;;;;;5099058;27;20529;-85
2022/06/01 11:29:43;;;;;;;7.57;4.78;;;;;;;;;;5116425;27;20036;-87
2022/06/01 11:32:17;;;;;;;8.45;4.32;;;;;;;;;;5116142;27;20096;-87
2022/06/01 11:34:56;;;;;;;6.95;3.20;;;;;;;;;;5117718;27;20524;-88
2022/06/01 11:37:33;;;;;;;7.18;3.00;;;;;;;;;;5123161;27;20096;-87
2022/06/01 11:40:08;;;;;;;4.53;2.70;;;;;;;;;;5112574;27;20082;-88
2022/06/01 11:42:44;;;;;;;5.28;3.30;;;;;;;;;;5079596;28;20031;-88
2022/06/01 11:45:12;;;;;;;6.28;3.60;;;;;;;;;;5104926;27;20440;-88
2022/06/01 11:47:53;;;;;;;6.28;3.70;;;;;;;;;;5118048;27;20445;-91
2022/06/01 11:50:48;;;;;;;4.93;3.50;;;;;;;;;;5109893;28;20184;-85
2022/06/01 11:53:21;;;;;;;6.50;3.75;;;;;;;;;;5091039;28;20054;-86
2022/06/01 11:55:49;;;;;;;7.13;4.03;;;;;;;;;;5110858;27;20075;-86
2022/06/01 11:58:35;;;;;;;8.02;3.75;;;;;;;;;;5073848;28;20036;-85
2022/06/01 12:01:15;;;;;;;5.07;3.35;;;;;;;;;;5081689;27;20051;-84
2022/06/01 12:03:53;;;;;;;6.88;4.20;;;;;;;;;;5097422;28;20515;-83
2022/06/01 12:06:40;;;;;;;5.65;3.45;;;;;;;;;;5101512;27;20104;-86
2022/06/01 12:09:12;;;;;;;6.28;3.10;;;;;;;;;;5117839;27;20083;-83
2022/06/01 12:11:38;;;;;;;5.18;3.10;;;;;;;;;;5126640;27;20123;-85
2022/06/01 12:14:20;;;;;;;7.38;5.30;;;;;;;;;;5115273;27;20046;-84
2022/06/01 12:16:46;;;;;;;8.85;5.32;;;;;;;;;;5098829;28;20453;-83
2022/06/01 12:19:19;;;;;;;7.28;3.60;;;;;;;;;;5087740;28;20438;-85
2022/06/01 12:21:46;;;;;;;5.60;2.95;;;;;;;;;;5127235;27;20044;-85
2022/06/01 12:29:59;;;;;;;7.38;3.40;;;;;;;;;;5098490;28;20048;-78
2022/06/01 12:32:26;;;;;;;10.10;4.85;;;;;;;;;;5109929;27;20118;-79
2022/06/01 12:35:08;;;;;;;7.88;4.93;;;;;;;;;;5115536;27;20044;-78
2022/06/01 12:37:40;;;;;;;9.27;5.90;;;;;;;;;;5113292;27;20070;-77
2022/06/01 12:40:12;;;;;;;7.55;5.45;;;;;;;;;;5121720;27;20368;-79
2022/06/01 12:42:42;;;;;;;8.00;6.50;;;;;;;;;;5105899;27;20533;-77
2022/06/01 12:45:13;;;;;;;8.27;6.75;;;;;;;;;;5113023;27;20035;-75
2022/06/01 12:47:52;;;;;;;10.02;7.10;;;;;;;;;;5124216;27;20495;-78
2022/06/01 12:50:19;;;;;;;9.43;7.18;;;;;;;;;;5120885;27;20094;-76
2022/06/01 12:52:47;;;;;;;9.65;7.13;;;;;;;;;;5113615;27;20031;-76
2022/06/01 12:55:17;;;;;;;10.00;6.82;;;;;;;;;;5125810;27;20036;-75
2022/06/01 12:57:52;;;;;;;9.18;7.13;;;;;;;;;;5117481;27;20486;-75
2022/06/01 13:00:26;;;;;;;5.82;2.90;;;;;;;;;;5098886;28;20297;-76
2022/06/01 13:02:53;;;;;;;6.55;2.25;;;;;;;;;;5108747;27;20035;-74
2022/06/01 13:05:24;;;;;;;2.60;1.63;;;;;;;;;;5114702;27;20043;-74
2022/06/01 13:07:52;;;;;;;2.60;1.20;;;;;;;;;;5118770;27;20067;-75
2022/06/01 13:10:25;;;;;;;2.92;1.40;;;;;;;;;;5123139;27;20134;-75
2022/06/01 13:13:02;;;;;;;3.40;1.50;;;;;;;;;;5112414;27;20126;-78
2022/06/01 13:15:28;;;;;;;2.85;1.50;;;;;;;;;;5121013;27;20281;-78
2022/06/01 13:17:57;;;;;;;2.17;1.50;;;;;;;;;;5104345;27;20061;-76
2022/06/01 13:20:25;;;;;;;2.35;1.45;;;;;;;;;;5112633;27;20445;-80
2022/06/01 13:22:53;;;;;;;4.18;1.90;;;;;;;;;;5097672;27;20567;-79
2022/06/01 13:25:22;;;;;;;2.13;1.55;;;;;;;;;;5120742;27;20457;-79
2022/06/01 13:27:49;;;;;;;2.80;1.67;;;;;;;;;;5121745;27;20439;-82
2022/06/01 13:30:16;;;;;;;2.00;1.48;;;;;;;;;;5112468;27;20040;-82
2022/06/01 13:32:44;;;;;;;1.80;1.40;;;;;;;;;;5121080;27;20360;-80
2022/06/01 13:35:16;;;;;;;2.63;1.40;;;;;;;;;;5103142;28;20054;-76
2022/06/01 13:37:44;;;;;;;1.83;1.27;;;;;;;;;;5121553;27;20347;-76
2022/06/01 13:40:21;;;;;;;1.92;1.30;;;;;;;;;;5128179;27;20603;-84
2022/06/01 13:42:52;;;;;;;3.65;1.27;;;;;;;;;;5098030;27;20039;-82
2022/06/01 13:45:20;;;;;;;3.03;1.50;;;;;;;;;;5117790;27;20405;-81
2022/06/01 13:47:49;;;;;;;2.40;1.30;;;;;;;;;;5107027;27;20528;-79
2022/06/01 13:50:15;;;;;;;2.92;1.50;;;;;;;;;;5094895;27;20151;-79
2022/06/01 13:52:43;;;;;;;2.35;1.33;;;;;;;;;;5104547;28;20031;-81
2022/06/01 13:55:14;;;;;;;1.98;1.30;;;;;;;;;;5107946;28;20044;-78
2022/06/01 13:57:51;;;;;;;2.45;1.40;;;;;;;;;;5124029;27;20387;-78
2022/06/01 14:00:30;;;;;;;3.33;1.17;;;;;;;;;;5097403;27;20043;-78
2022/06/01 14:03:05;;;;;;;1.77;1.35;;;;;;;;;;5101002;28;20085;-78
2022/06/01 14:05:37;;;;;;;1.52;1.17;;;;;;;;;;5123624;27;20054;-79
2022/06/01 14:08:12;;;;;;;2.72;1.20;;;;;;;;;;5074557;28;20055;-78
2022/06/01 14:10:38;;;;;;;;;;;;;;;;;;5100098;27;20062;-79
2022/06/01 14:13:04;;;;;;;1.95;1.20;;;;;;;;;;5114355;27;19915;-79
2022/06/01 14:15:32;;;;;;;1.70;1.20;;;;;;;;;;5124628;27;20035;-78
2022/06/01 14:17:58;;;;;;;2.58;1.13;;;;;;;;;;5112208;27;20050;-78
2022/06/01 14:20:24;;;;;;;2.45;1.70;;;;;;;;;;5119720;27;20050;-78
2022/06/01 14:22:50;;;;;;;3.72;2.17;;;;;;;;;;5103334;27;20410;-78
2022/06/01 14:30:46;;;;;;;4.22;2.45;;;;;;;;;;5114761;28;20048;-77
2022/06/01 14:33:12;;;;;;;4.40;2.50;;;;;;;;;;5107377;28;20501;-77
2022/06/01 14:35:38;;;;;;;5.18;2.88;;;;;;;;;;5112490;28;20422;-78
2022/06/01 14:38:04;;;;;;;3.95;2.35;;;;;;;;;;5119794;28;20131;-77
2022/06/01 14:40:31;;;;;;;3.08;2.20;;;;;;;;;;5120058;28;20039;-77
2022/06/01 14:43:14;;;;;;;3.55;2.40;;;;;;;;;;5111467;28;20040;-77
2022/06/01 14:45:40;;;;;;;4.55;3.10;;;;;;;;;;5113568;28;20051;-78
2022/06/01 14:48:06;;;;;;;5.68;3.30;;;;;;;;;;5121825;28;20114;-77
2022/06/01 14:50:32;;;;;;;4.15;2.75;;;;;;;;;;5113752;28;20044;-77
2022/06/01 14:52:59;;;;;;;4.80;2.75;;;;;;;;;;5124379;28;20490;-76
2022/06/01 14:55:26;;;;;;;6.45;3.25;;;;;;;;;;5113003;28;20031;-77
2022/06/01 14:57:52;;;;;;;4.50;2.83;;;;;;;;;;5101660;28;20063;-77
2022/06/01 15:00:18;;;;;;;5.45;3.25;;;;;;;;;;5120771;28;20039;-77
2022/06/01 15:02:47;;;;;;;3.90;2.78;;;;;;;;;;5111298;28;20500;-77
2022/06/01 15:05:15;;;;;;;6.30;2.70;;;;;;;;;;5122676;28;20044;-77
2022/06/01 15:07:41;;;;;;;3.75;2.47;;;;;;;;;;5116342;28;20392;-77
2022/06/01 15:10:07;;;;;;;5.45;2.50;;;;;;;;;;5114463;28;20112;-77
2022/06/01 15:12:33;;;;;;;3.13;2.53;;;;;;;;;;5076626;28;20235;-77
2022/06/01 15:15:00;;;;;;;4.60;2.40;;;;;;;;;;5115992;28;20040;-74
2022/06/01 15:17:27;;;;;;;4.25;2.30;;;;;;;;;;5107602;28;20032;-74
2022/06/01 15:19:54;;;;;;;4.43;2.80;;;;;;;;;;5107018;28;20518;-75